sensor_id;sensor_type;location;lat;lon;timestamp;pressure;altitude;pressure_sealevel;temperature;humidity
70393;BME280;57812;59.294;18.084;2022-07-15T00:00:03;99721.44;;;31.79;16.36
70393;BME280;57812;59.294;18.084;2022-07-15T00:02:28;99724.59;;;31.47;16.37
70393;BME280;57812;59.294;18.084;2022-07-15T00:04:54;99722.93;;;31.41;16.36
70393;BME280;57812;59.294;18.084;2022-07-15T00:07:20;99721.76;;;31.24;16.28
70393;BME280;57812;59.294;18.084;2022-07-15T00:09:46;99720.54;;;30.89;16.31
70393;BME280;57812;59.294;18.084;2022-07-15T00:12:12;99723.61;;;30.90;16.27
70393;BME280;57812;59.294;18.084;2022-07-15T00:14:38;99726.95;;;31.02;16.11
70393;BME280;57812;59.294;18.084;2022-07-15T00:17:04;99728.41;;;31.39;16.12
70393;BME280;57812;59.294;18.084;2022-07-15T00:19:29;99733.20;;;31.29;16.13
70393;BME280;57812;59.294;18.084;2022-07-15T00:21:55;99734.32;;;31.25;15.97
70393;BME280;57812;59.294;18.084;2022-07-15T00:24:21;99739.54;;;31.80;16.04
70393;BME280;57812;59.294;18.084;2022-07-15T00:26:47;99738.12;;;31.49;16.11
70393;BME280;57812;59.294;18.084;2022-07-15T00:29:13;99741.40;;;31.04;16.11
70393;BME280;57812;59.294;18.084;2022-07-15T00:31:39;99746.43;;;31.79;16.02
70393;BME280;57812;59.294;18.084;2022-07-15T00:34:05;99746.31;;;31.69;16.06
70393;BME280;57812;59.294;18.084;2022-07-15T00:36:31;99748.09;;;31.37;15.95
70393;BME280;57812;59.294;18.084;2022-07-15T00:38:57;99747.41;;;31.48;16.00
70393;BME280;57812;59.294;18.084;2022-07-15T00:41:23;99748.87;;;30.85;15.99
70393;BME280;57812;59.294;18.084;2022-07-15T00:43:49;99752.60;;;31.54;15.95
70393;BME280;57812;59.294;18.084;2022-07-15T00:46:20;99752.53;;;31.09;15.94
70393;BME280;57812;59.294;18.084;2022-07-15T00:48:41;99754.59;;;31.50;15.94
70393;BME280;57812;59.294;18.084;2022-07-15T00:51:06;99751.68;;;31.41;16.00
70393;BME280;57812;59.294;18.084;2022-07-15T00:53:33;99752.85;;;31.38;15.86
70393;BME280;57812;59.294;18.084;2022-07-15T00:55:59;99752.73;;;31.84;15.98
70393;BME280;57812;59.294;18.084;2022-07-15T00:58:25;99750.36;;;31.41;15.97
70393;BME280;57812;59.294;18.084;2022-07-15T01:00:51;99748.80;;;31.25;15.93
70393;BME280;57812;59.294;18.084;2022-07-15T01:03:17;99748.25;;;31.71;15.90
70393;BME280;57812;59.294;18.084;2022-07-15T01:05:43;99744.96;;;31.24;15.94
70393;BME280;57812;59.294;18.084;2022-07-15T01:08:08;99745.89;;;31.20;15.90
70393;BME280;57812;59.294;18.084;2022-07-15T01:10:35;99744.93;;;31.41;15.91
70393;BME280;57812;59.294;18.084;2022-07-15T01:13:00;99746.85;;;31.08;15.94
70393;BME280;57812;59.294;18.084;2022-07-15T01:15:26;99749.18;;;31.46;15.84
70393;BME280;57812;59.294;18.084;2022-07-15T01:17:52;99748.49;;;30.87;15.97
70393;BME280;57812;59.294;18.084;2022-07-15T01:20:18;99749.46;;;31.47;15.87
70393;BME280;57812;59.294;18.084;2022-07-15T01:22:44;99751.50;;;30.96;15.87
70393;BME280;57812;59.294;18.084;2022-07-15T01:25:10;99750.15;;;30.86;15.89
70393;BME280;57812;59.294;18.084;2022-07-15T01:27:35;99751.00;;;31.22;15.88
70393;BME280;57812;59.294;18.084;2022-07-15T01:30:02;99752.85;;;31.04;15.97
70393;BME280;57812;59.294;18.084;2022-07-15T01:32:28;99751.87;;;31.16;15.67
70393;BME280;57812;59.294;18.084;2022-07-15T01:34:54;99754.43;;;31.32;15.66
70393;BME280;57812;59.294;18.084;2022-07-15T01:37:19;99756.53;;;30.91;15.70
70393;BME280;57812;59.294;18.084;2022-07-15T01:39:45;99758.12;;;30.95;15.62
70393;BME280;57812;59.294;18.084;2022-07-15T01:42:11;99760.21;;;31.24;15.55
70393;BME280;57812;59.294;18.084;2022-07-15T01:44:37;99762.28;;;30.97;15.52
70393;BME280;57812;59.294;18.084;2022-07-15T01:47:04;99762.37;;;30.93;15.49
70393;BME280;57812;59.294;18.084;2022-07-15T01:49:29;99763.79;;;31.02;15.50
70393;BME280;57812;59.294;18.084;2022-07-15T01:51:56;99762.48;;;30.90;15.32
70393;BME280;57812;59.294;18.084;2022-07-15T01:54:21;99763.97;;;31.19;15.36
70393;BME280;57812;59.294;18.084;2022-07-15T01:56:47;99760.45;;;31.17;15.36
70393;BME280;57812;59.294;18.084;2022-07-15T01:59:13;99761.01;;;30.72;15.30
70393;BME280;57812;59.294;18.084;2022-07-15T02:01:39;99763.70;;;31.31;15.35
70393;BME280;57812;59.294;18.084;2022-07-15T02:04:05;99760.47;;;31.01;15.25
70393;BME280;57812;59.294;18.084;2022-07-15T02:06:31;99764.32;;;30.88;15.34
70393;BME280;57812;59.294;18.084;2022-07-15T02:08:57;99763.42;;;31.02;15.41
70393;BME280;57812;59.294;18.084;2022-07-15T02:11:23;99764.60;;;31.03;15.39
70393;BME280;57812;59.294;18.084;2022-07-15T02:13:49;99760.46;;;31.05;15.37
70393;BME280;57812;59.294;18.084;2022-07-15T02:16:15;99760.18;;;31.05;15.33
70393;BME280;57812;59.294;18.084;2022-07-15T02:18:40;99766.01;;;31.48;15.17
70393;BME280;57812;59.294;18.084;2022-07-15T02:21:06;99767.87;;;31.19;15.19
70393;BME280;57812;59.294;18.084;2022-07-15T02:23:32;99771.28;;;30.95;15.18
70393;BME280;57812;59.294;18.084;2022-07-15T02:25:58;99772.05;;;30.51;15.29
70393;BME280;57812;59.294;18.084;2022-07-15T02:28:24;99770.31;;;31.08;15.20
70393;BME280;57812;59.294;18.084;2022-07-15T02:30:50;99765.43;;;31.31;15.46
70393;BME280;57812;59.294;18.084;2022-07-15T02:33:16;99769.94;;;31.06;15.20
70393;BME280;57812;59.294;18.084;2022-07-15T02:35:42;99768.64;;;30.99;15.22
70393;BME280;57812;59.294;18.084;2022-07-15T02:38:08;99765.69;;;31.10;15.33
70393;BME280;57812;59.294;18.084;2022-07-15T02:40:34;99767.15;;;30.69;15.71
70393;BME280;57812;59.294;18.084;2022-07-15T02:43:02;99763.74;;;30.62;15.54
70393;BME280;57812;59.294;18.084;2022-07-15T02:45:28;99768.10;;;30.62;15.39
70393;BME280;57812;59.294;18.084;2022-07-15T02:47:52;99768.38;;;30.68;15.48
70393;BME280;57812;59.294;18.084;2022-07-15T02:50:19;99770.20;;;30.67;15.46
70393;BME280;57812;59.294;18.084;2022-07-15T02:52:44;99772.91;;;30.44;15.45
70393;BME280;57812;59.294;18.084;2022-07-15T02:55:11;99776.67;;;30.19;15.32
70393;BME280;57812;59.294;18.084;2022-07-15T02:57:36;99779.37;;;30.91;15.28
70393;BME280;57812;59.294;18.084;2022-07-15T03:00:03;99779.18;;;31.27;15.31
70393;BME280;57812;59.294;18.084;2022-07-15T03:02:27;99778.84;;;30.62;15.26
70393;BME280;57812;59.294;18.084;2022-07-15T03:04:54;99779.80;;;30.53;15.29
70393;BME280;57812;59.294;18.084;2022-07-15T03:07:19;99780.55;;;30.80;15.25
70393;BME280;57812;59.294;18.084;2022-07-15T03:09:45;99789.98;;;30.35;15.23
70393;BME280;57812;59.294;18.084;2022-07-15T03:12:11;99784.65;;;30.92;15.08
70393;BME280;57812;59.294;18.084;2022-07-15T03:14:37;99790.59;;;30.83;15.07
70393;BME280;57812;59.294;18.084;2022-07-15T03:17:03;99788.11;;;30.54;15.07
70393;BME280;57812;59.294;18.084;2022-07-15T03:19:29;99789.67;;;29.84;15.49
70393;BME280;57812;59.294;18.084;2022-07-15T03:21:55;99791.19;;;30.07;15.38
70393;BME280;57812;59.294;18.084;2022-07-15T03:24:20;99792.40;;;30.42;15.08
70393;BME280;57812;59.294;18.084;2022-07-15T03:26:46;99796.55;;;31.37;14.96
70393;BME280;57812;59.294;18.084;2022-07-15T03:29:12;99799.91;;;30.69;14.91
70393;BME280;57812;59.294;18.084;2022-07-15T03:31:38;99796.44;;;30.40;14.86
70393;BME280;57812;59.294;18.084;2022-07-15T03:34:04;99800.25;;;31.00;14.85
70393;BME280;57812;59.294;18.084;2022-07-15T03:36:30;99798.15;;;30.87;14.69
70393;BME280;57812;59.294;18.084;2022-07-15T03:38:56;99796.36;;;31.09;14.62
70393;BME280;57812;59.294;18.084;2022-07-15T03:41:22;99795.64;;;30.87;14.53
70393;BME280;57812;59.294;18.084;2022-07-15T03:43:48;99801.19;;;30.65;14.47
70393;BME280;57812;59.294;18.084;2022-07-15T03:46:14;99796.05;;;30.90;14.42
70393;BME280;57812;59.294;18.084;2022-07-15T03:48:40;99800.78;;;30.85;14.43
70393;BME280;57812;59.294;18.084;2022-07-15T03:51:06;99806.19;;;30.85;14.39
70393;BME280;57812;59.294;18.084;2022-07-15T03:53:32;99808.57;;;30.75;14.31
70393;BME280;57812;59.294;18.084;2022-07-15T03:55:58;99813.02;;;31.23;14.37
70393;BME280;57812;59.294;18.084;2022-07-15T03:58:24;99808.18;;;30.67;14.43
70393;BME280;57812;59.294;18.084;2022-07-15T04:00:50;99812.67;;;30.73;14.38
70393;BME280;57812;59.294;18.084;2022-07-15T04:03:16;99814.14;;;31.21;14.38
70393;BME280;57812;59.294;18.084;2022-07-15T04:05:42;99815.23;;;30.23;14.26
70393;BME280;57812;59.294;18.084;2022-07-15T04:08:08;99817.77;;;31.20;14.21
70393;BME280;57812;59.294;18.084;2022-07-15T04:10:33;99817.59;;;30.61;14.25
70393;BME280;57812;59.294;18.084;2022-07-15T04:12:59;99815.49;;;30.74;14.16
70393;BME280;57812;59.294;18.084;2022-07-15T04:15:26;99815.42;;;30.72;14.18
70393;BME280;57812;59.294;18.084;2022-07-15T04:17:51;99815.48;;;30.94;14.14
70393;BME280;57812;59.294;18.084;2022-07-15T04:20:17;99817.31;;;30.92;14.00
70393;BME280;57812;59.294;18.084;2022-07-15T04:22:44;99817.84;;;31.19;13.91
70393;BME280;57812;59.294;18.084;2022-07-15T04:25:11;99812.73;;;30.98;13.94
70393;BME280;57812;59.294;18.084;2022-07-15T04:27:35;99817.13;;;30.75;13.84
70393;BME280;57812;59.294;18.084;2022-07-15T04:30:01;99821.73;;;30.99;13.81
70393;BME280;57812;59.294;18.084;2022-07-15T04:32:28;99822.74;;;30.70;13.84
70393;BME280;57812;59.294;18.084;2022-07-15T04:34:53;99823.96;;;30.83;13.67
70393;BME280;57812;59.294;18.084;2022-07-15T04:37:19;99825.58;;;30.81;13.75
70393;BME280;57812;59.294;18.084;2022-07-15T04:39:45;99818.66;;;31.00;13.64
70393;BME280;57812;59.294;18.084;2022-07-15T04:42:11;99821.01;;;30.30;13.78
70393;BME280;57812;59.294;18.084;2022-07-15T04:44:37;99821.40;;;31.01;13.61
70393;BME280;57812;59.294;18.084;2022-07-15T04:47:03;99824.57;;;30.66;13.68
70393;BME280;57812;59.294;18.084;2022-07-15T04:49:29;99824.58;;;30.72;13.75
70393;BME280;57812;59.294;18.084;2022-07-15T04:51:54;99825.53;;;30.64;13.73
70393;BME280;57812;59.294;18.084;2022-07-15T04:54:20;99818.19;;;30.73;13.71
70393;BME280;57812;59.294;18.084;2022-07-15T04:56:46;99819.01;;;30.94;13.73
70393;BME280;57812;59.294;18.084;2022-07-15T04:59:12;99816.50;;;30.81;13.86
70393;BME280;57812;59.294;18.084;2022-07-15T05:01:38;99815.97;;;30.25;13.90
70393;BME280;57812;59.294;18.084;2022-07-15T05:04:04;99810.86;;;30.58;14.05
70393;BME280;57812;59.294;18.084;2022-07-15T05:06:30;99814.39;;;30.27;13.97
70393;BME280;57812;59.294;18.084;2022-07-15T05:08:56;99817.43;;;30.10;14.10
70393;BME280;57812;59.294;18.084;2022-07-15T05:11:22;99822.23;;;30.46;14.01
70393;BME280;57812;59.294;18.084;2022-07-15T05:13:48;99824.38;;;30.20;14.10
70393;BME280;57812;59.294;18.084;2022-07-15T05:16:14;99826.51;;;30.12;14.15
70393;BME280;57812;59.294;18.084;2022-07-15T05:18:40;99827.72;;;30.32;14.15
70393;BME280;57812;59.294;18.084;2022-07-15T05:21:06;99828.50;;;29.78;14.44
70393;BME280;57812;59.294;18.084;2022-07-15T05:23:32;99829.60;;;30.26;14.30
70393;BME280;57812;59.294;18.084;2022-07-15T05:25:58;99830.49;;;30.34;14.31
70393;BME280;57812;59.294;18.084;2022-07-15T05:28:24;99828.85;;;29.80;14.31
70393;BME280;57812;59.294;18.084;2022-07-15T05:30:50;99830.49;;;29.60;14.21
70393;BME280;57812;59.294;18.084;2022-07-15T05:33:16;99826.47;;;30.29;14.35
70393;BME280;57812;59.294;18.084;2022-07-15T05:35:41;99828.91;;;30.44;14.23
70393;BME280;57812;59.294;18.084;2022-07-15T05:38:07;99829.98;;;29.89;14.09
70393;BME280;57812;59.294;18.084;2022-07-15T05:40:33;99828.76;;;30.64;13.90
70393;BME280;57812;59.294;18.084;2022-07-15T05:42:59;99835.29;;;30.23;13.87
70393;BME280;57812;59.294;18.084;2022-07-15T05:45:25;99832.42;;;30.04;14.24
70393;BME280;57812;59.294;18.084;2022-07-15T05:47:51;99837.20;;;30.10;14.07
70393;BME280;57812;59.294;18.084;2022-07-15T05:50:18;99838.12;;;30.66;13.86
70393;BME280;57812;59.294;18.084;2022-07-15T05:52:43;99839.60;;;30.29;13.89
70393;BME280;57812;59.294;18.084;2022-07-15T05:55:09;99837.21;;;30.52;14.06
70393;BME280;57812;59.294;18.084;2022-07-15T05:57:34;99844.16;;;30.11;13.81
70393;BME280;57812;59.294;18.084;2022-07-15T06:00:01;99848.40;;;30.43;14.10
70393;BME280;57812;59.294;18.084;2022-07-15T06:02:26;99848.55;;;30.06;14.07
70393;BME280;57812;59.294;18.084;2022-07-15T06:04:52;99848.50;;;30.21;13.92
70393;BME280;57812;59.294;18.084;2022-07-15T06:07:18;99849.58;;;30.18;13.69
70393;BME280;57812;59.294;18.084;2022-07-15T06:09:44;99853.78;;;30.17;13.54
70393;BME280;57812;59.294;18.084;2022-07-15T06:12:10;99855.05;;;30.77;13.58
70393;BME280;57812;59.294;18.084;2022-07-15T06:14:36;99854.88;;;30.48;13.47
70393;BME280;57812;59.294;18.084;2022-07-15T06:17:02;99853.62;;;30.36;13.68
70393;BME280;57812;59.294;18.084;2022-07-15T06:19:28;99854.46;;;31.23;13.43
70393;BME280;57812;59.294;18.084;2022-07-15T06:21:54;99854.98;;;30.58;13.45
70393;BME280;57812;59.294;18.084;2022-07-15T06:24:19;99856.44;;;30.17;13.60
70393;BME280;57812;59.294;18.084;2022-07-15T06:26:45;99856.03;;;30.65;13.38
70393;BME280;57812;59.294;18.084;2022-07-15T06:29:11;99855.09;;;30.48;13.37
70393;BME280;57812;59.294;18.084;2022-07-15T06:31:37;99854.38;;;30.18;13.46
70393;BME280;57812;59.294;18.084;2022-07-15T06:34:03;99861.25;;;30.83;13.19
70393;BME280;57812;59.294;18.084;2022-07-15T06:36:29;99865.23;;;30.46;13.32
70393;BME280;57812;59.294;18.084;2022-07-15T06:38:55;99867.20;;;30.89;13.07
70393;BME280;57812;59.294;18.084;2022-07-15T06:41:21;99862.27;;;30.51;12.99
70393;BME280;57812;59.294;18.084;2022-07-15T06:43:47;99866.15;;;30.83;12.99
70393;BME280;57812;59.294;18.084;2022-07-15T06:46:13;99870.20;;;30.58;12.95
70393;BME280;57812;59.294;18.084;2022-07-15T06:48:39;99873.00;;;30.81;12.79
70393;BME280;57812;59.294;18.084;2022-07-15T06:51:05;99877.14;;;31.03;12.68
70393;BME280;57812;59.294;18.084;2022-07-15T06:53:30;99877.56;;;30.91;12.76
70393;BME280;57812;59.294;18.084;2022-07-15T06:55:56;99879.26;;;30.50;12.87
70393;BME280;57812;59.294;18.084;2022-07-15T06:58:22;99884.26;;;30.29;12.96
70393;BME280;57812;59.294;18.084;2022-07-15T07:00:48;99884.69;;;30.84;12.88
70393;BME280;57812;59.294;18.084;2022-07-15T07:03:14;99883.92;;;30.58;12.84
70393;BME280;57812;59.294;18.084;2022-07-15T07:05:40;99882.49;;;30.57;12.92
70393;BME280;57812;59.294;18.084;2022-07-15T07:08:06;99886.15;;;30.90;13.10
70393;BME280;57812;59.294;18.084;2022-07-15T07:10:32;99880.80;;;30.61;12.92
70393;BME280;57812;59.294;18.084;2022-07-15T07:12:58;99883.56;;;30.82;12.94
70393;BME280;57812;59.294;18.084;2022-07-15T07:15:24;99881.81;;;30.75;13.02
70393;BME280;57812;59.294;18.084;2022-07-15T07:17:50;99881.43;;;30.55;12.92
70393;BME280;57812;59.294;18.084;2022-07-15T07:20:16;99888.62;;;30.43;13.18
70393;BME280;57812;59.294;18.084;2022-07-15T07:22:41;99888.61;;;30.74;13.29
70393;BME280;57812;59.294;18.084;2022-07-15T07:25:08;99890.20;;;30.55;13.17
70393;BME280;57812;59.294;18.084;2022-07-15T07:27:33;99890.27;;;30.02;13.36
70393;BME280;57812;59.294;18.084;2022-07-15T07:29:59;99894.11;;;30.11;13.30
70393;BME280;57812;59.294;18.084;2022-07-15T07:32:25;99890.73;;;30.04;13.38
70393;BME280;57812;59.294;18.084;2022-07-15T07:34:51;99890.01;;;30.31;13.40
70393;BME280;57812;59.294;18.084;2022-07-15T07:37:17;99900.35;;;30.37;13.41
70393;BME280;57812;59.294;18.084;2022-07-15T07:39:43;99895.65;;;30.73;13.15
70393;BME280;57812;59.294;18.084;2022-07-15T07:42:09;99897.90;;;30.49;13.24
70393;BME280;57812;59.294;18.084;2022-07-15T07:44:35;99901.72;;;30.63;13.31
70393;BME280;57812;59.294;18.084;2022-07-15T07:47:01;99905.89;;;30.48;13.23
70393;BME280;57812;59.294;18.084;2022-07-15T07:49:27;99906.95;;;30.49;13.36
70393;BME280;57812;59.294;18.084;2022-07-15T07:51:52;99907.43;;;30.47;13.37
70393;BME280;57812;59.294;18.084;2022-07-15T07:54:19;99901.55;;;30.25;13.11
70393;BME280;57812;59.294;18.084;2022-07-15T07:56:45;99903.38;;;30.61;13.14
70393;BME280;57812;59.294;18.084;2022-07-15T07:59:10;99908.23;;;30.72;13.16
70393;BME280;57812;59.294;18.084;2022-07-15T08:01:36;99907.59;;;30.17;13.23
70393;BME280;57812;59.294;18.084;2022-07-15T08:04:02;99909.95;;;30.69;13.19
70393;BME280;57812;59.294;18.084;2022-07-15T08:06:28;99910.83;;;30.18;13.22
70393;BME280;57812;59.294;18.084;2022-07-15T08:08:54;99908.73;;;29.91;13.59
70393;BME280;57812;59.294;18.084;2022-07-15T08:11:20;99908.75;;;30.45;13.41
70393;BME280;57812;59.294;18.084;2022-07-15T08:13:46;99908.31;;;30.08;13.50
70393;BME280;57812;59.294;18.084;2022-07-15T08:16:12;99914.08;;;28.92;14.22
70393;BME280;57812;59.294;18.084;2022-07-15T08:18:38;99903.92;;;30.50;13.67
70393;BME280;57812;59.294;18.084;2022-07-15T08:21:04;99907.95;;;31.78;13.01
70393;BME280;57812;59.294;18.084;2022-07-15T08:23:30;99906.97;;;32.20;13.06
70393;BME280;57812;59.294;18.084;2022-07-15T08:25:56;99903.70;;;31.25;13.79
70393;BME280;57812;59.294;18.084;2022-07-15T08:28:22;99905.51;;;30.71;13.73
70393;BME280;57812;59.294;18.084;2022-07-15T08:30:48;99906.91;;;31.74;13.34
70393;BME280;57812;59.294;18.084;2022-07-15T08:33:13;99906.52;;;31.73;13.31
70393;BME280;57812;59.294;18.084;2022-07-15T08:35:39;99903.67;;;32.31;13.10
70393;BME280;57812;59.294;18.084;2022-07-15T08:38:07;99907.06;;;31.80;13.14
70393;BME280;57812;59.294;18.084;2022-07-15T08:40:31;99907.29;;;31.75;13.16
70393;BME280;57812;59.294;18.084;2022-07-15T08:42:57;99915.55;;;31.10;13.43
70393;BME280;57812;59.294;18.084;2022-07-15T08:45:23;99914.35;;;31.63;13.27
70393;BME280;57812;59.294;18.084;2022-07-15T08:47:51;99919.65;;;31.97;13.23
70393;BME280;57812;59.294;18.084;2022-07-15T08:50:16;99916.35;;;31.44;13.02
70393;BME280;57812;59.294;18.084;2022-07-15T08:52:43;99921.69;;;31.91;13.12
70393;BME280;57812;59.294;18.084;2022-07-15T08:55:07;99920.40;;;31.22;13.62
70393;BME280;57812;59.294;18.084;2022-07-15T08:57:33;99925.19;;;32.02;13.22
70393;BME280;57812;59.294;18.084;2022-07-15T08:59:58;99921.74;;;32.42;12.98
70393;BME280;57812;59.294;18.084;2022-07-15T09:02:24;99920.42;;;31.90;13.06
70393;BME280;57812;59.294;18.084;2022-07-15T09:07:16;99926.96;;;32.54;12.95
70393;BME280;57812;59.294;18.084;2022-07-15T09:09:43;99927.83;;;32.14;13.03
70393;BME280;57812;59.294;18.084;2022-07-15T09:12:09;99923.77;;;31.87;12.86
70393;BME280;57812;59.294;18.084;2022-07-15T09:14:36;99926.73;;;32.55;12.75
70393;BME280;57812;59.294;18.084;2022-07-15T09:17:06;99927.47;;;32.07;12.81
70393;BME280;57812;59.294;18.084;2022-07-15T09:19:25;99930.61;;;32.20;12.76
70393;BME280;57812;59.294;18.084;2022-07-15T09:22:00;99934.28;;;32.79;12.69
70393;BME280;57812;59.294;18.084;2022-07-15T09:24:18;99930.50;;;32.59;12.79
70393;BME280;57812;59.294;18.084;2022-07-15T09:26:43;99935.74;;;32.47;12.89
70393;BME280;57812;59.294;18.084;2022-07-15T09:29:09;99932.99;;;32.82;12.59
70393;BME280;57812;59.294;18.084;2022-07-15T09:31:36;99928.70;;;32.17;12.96
70393;BME280;57812;59.294;18.084;2022-07-15T09:34:02;99928.54;;;31.68;12.98
70393;BME280;57812;59.294;18.084;2022-07-15T09:36:28;99930.64;;;32.17;12.98
70393;BME280;57812;59.294;18.084;2022-07-15T09:38:54;99929.54;;;32.23;12.93
70393;BME280;57812;59.294;18.084;2022-07-15T09:41:23;99924.37;;;32.18;12.96
70393;BME280;57812;59.294;18.084;2022-07-15T09:43:47;99926.17;;;32.17;12.85
70393;BME280;57812;59.294;18.084;2022-07-15T09:46:10;99932.89;;;32.13;12.92
70393;BME280;57812;59.294;18.084;2022-07-15T09:48:39;99933.29;;;32.42;12.74
70393;BME280;57812;59.294;18.084;2022-07-15T09:51:01;99928.87;;;32.20;12.84
70393;BME280;57812;59.294;18.084;2022-07-15T09:53:27;99934.66;;;31.99;12.71
70393;BME280;57812;59.294;18.084;2022-07-15T09:55:53;99934.37;;;32.10;12.59
70393;BME280;57812;59.294;18.084;2022-07-15T09:58:19;99936.11;;;32.36;12.53
70393;BME280;57812;59.294;18.084;2022-07-15T10:00:44;99938.66;;;32.52;12.60
70393;BME280;57812;59.294;18.084;2022-07-15T10:03:11;99941.74;;;31.38;12.96
70393;BME280;57812;59.294;18.084;2022-07-15T10:05:39;99940.19;;;31.89;12.72
70393;BME280;57812;59.294;18.084;2022-07-15T10:08:02;99938.58;;;31.96;12.93
70393;BME280;57812;59.294;18.084;2022-07-15T10:10:29;99943.56;;;31.71;13.13
70393;BME280;57812;59.294;18.084;2022-07-15T10:13:01;99943.38;;;31.70;13.10
70393;BME280;57812;59.294;18.084;2022-07-15T10:15:28;99939.00;;;31.87;13.08
70393;BME280;57812;59.294;18.084;2022-07-15T10:17:54;99944.37;;;31.30;13.17
70393;BME280;57812;59.294;18.084;2022-07-15T10:20:20;99942.62;;;31.21;13.20
70393;BME280;57812;59.294;18.084;2022-07-15T10:22:49;99937.70;;;31.22;13.07
70393;BME280;57812;59.294;18.084;2022-07-15T10:25:12;99939.56;;;31.01;12.97
70393;BME280;57812;59.294;18.084;2022-07-15T10:27:42;99938.79;;;31.42;12.82
70393;BME280;57812;59.294;18.084;2022-07-15T10:29:56;99940.96;;;31.65;12.74
70393;BME280;57812;59.294;18.084;2022-07-15T10:32:21;99941.52;;;30.10;13.81
70393;BME280;57812;59.294;18.084;2022-07-15T10:34:47;99945.95;;;32.97;12.18
70393;BME280;57812;59.294;18.084;2022-07-15T10:37:13;99941.24;;;32.58;12.23
70393;BME280;57812;59.294;18.084;2022-07-15T10:39:48;99947.03;;;32.76;12.14
70393;BME280;57812;59.294;18.084;2022-07-15T10:42:04;99948.92;;;32.51;12.37
70393;BME280;57812;59.294;18.084;2022-07-15T10:44:31;99949.95;;;31.45;13.15
70393;BME280;57812;59.294;18.084;2022-07-15T10:49:28;99950.19;;;30.76;13.13
70393;BME280;57812;59.294;18.084;2022-07-15T10:51:48;99946.91;;;31.18;12.99
70393;BME280;57812;59.294;18.084;2022-07-15T10:56:42;99945.18;;;30.86;13.30
70393;BME280;57812;59.294;18.084;2022-07-15T10:59:08;99937.74;;;30.26;13.63
70393;BME280;57812;59.294;18.084;2022-07-15T11:01:31;99938.85;;;30.80;13.21
70393;BME280;57812;59.294;18.084;2022-07-15T11:06:23;99951.67;;;30.43;13.43
70393;BME280;57812;59.294;18.084;2022-07-15T11:08:50;99934.91;;;30.81;13.36
70393;BME280;57812;59.294;18.084;2022-07-15T11:13:42;99932.87;;;30.56;13.50
70393;BME280;57812;59.294;18.084;2022-07-15T11:16:09;99938.11;;;30.40;13.59
70393;BME280;57812;59.294;18.084;2022-07-15T11:20:58;99933.10;;;30.46;13.77
70393;BME280;57812;59.294;18.084;2022-07-15T11:23:29;99930.92;;;30.68;13.42
70393;BME280;57812;59.294;18.084;2022-07-15T11:25:50;99932.73;;;29.81;13.94
70393;BME280;57812;59.294;18.084;2022-07-15T11:28:16;99939.98;;;29.83;13.76
70393;BME280;57812;59.294;18.084;2022-07-15T11:30:43;99938.81;;;29.91;13.71
70393;BME280;57812;59.294;18.084;2022-07-15T11:33:09;99934.08;;;30.39;13.59
70393;BME280;57812;59.294;18.084;2022-07-15T11:35:42;99938.21;;;28.87;14.24
70393;BME280;57812;59.294;18.084;2022-07-15T11:38:01;99934.46;;;29.81;13.95
70393;BME280;57812;59.294;18.084;2022-07-15T11:40:25;99940.38;;;28.85;14.29
70393;BME280;57812;59.294;18.084;2022-07-15T11:42:51;99948.07;;;29.86;13.98
70393;BME280;57812;59.294;18.084;2022-07-15T11:47:51;99955.65;;;29.15;14.20
70393;BME280;57812;59.294;18.084;2022-07-15T11:50:09;99963.24;;;29.09;13.93
70393;BME280;57812;59.294;18.084;2022-07-15T11:52:34;99966.61;;;29.28;14.16
70393;BME280;57812;59.294;18.084;2022-07-15T11:55:05;99969.42;;;28.98;14.20
70393;BME280;57812;59.294;18.084;2022-07-15T11:57:32;99967.91;;;29.78;13.99
70393;BME280;57812;59.294;18.084;2022-07-15T11:59:54;99973.42;;;29.27;13.95
70393;BME280;57812;59.294;18.084;2022-07-15T12:02:18;99980.20;;;29.63;13.76
70393;BME280;57812;59.294;18.084;2022-07-15T12:04:44;99977.86;;;29.37;14.09
70393;BME280;57812;59.294;18.084;2022-07-15T12:07:10;99979.24;;;29.93;13.91
70393;BME280;57812;59.294;18.084;2022-07-15T12:09:39;99980.22;;;29.45;14.24
70393;BME280;57812;59.294;18.084;2022-07-15T12:12:02;99972.52;;;30.12;13.77
70393;BME280;57812;59.294;18.084;2022-07-15T12:14:27;99980.19;;;30.49;13.99
70393;BME280;57812;59.294;18.084;2022-07-15T12:16:53;99981.02;;;30.66;13.34
70393;BME280;57812;59.294;18.084;2022-07-15T12:19:20;99988.97;;;29.84;13.60
70393;BME280;57812;59.294;18.084;2022-07-15T12:21:47;99987.73;;;30.56;13.36
70393;BME280;57812;59.294;18.084;2022-07-15T12:24:12;99989.41;;;30.49;13.55
70393;BME280;57812;59.294;18.084;2022-07-15T12:26:38;99992.86;;;30.88;13.19
70393;BME280;57812;59.294;18.084;2022-07-15T14:10:25;100006.89;;;31.88;11.86
70393;BME280;57812;59.294;18.084;2022-07-15T14:12:50;100005.40;;;30.50;12.40
70393;BME280;57812;59.294;18.084;2022-07-15T14:15:16;100009.53;;;30.30;12.58
70393;BME280;57812;59.294;18.084;2022-07-15T14:17:42;100012.71;;;30.44;12.72
70393;BME280;57812;59.294;18.084;2022-07-15T14:20:08;100015.43;;;29.64;12.92
70393;BME280;57812;59.294;18.084;2022-07-15T14:22:34;100015.36;;;30.56;12.77
70393;BME280;57812;59.294;18.084;2022-07-15T14:25:00;100021.24;;;30.05;12.98
70393;BME280;57812;59.294;18.084;2022-07-15T14:27:26;100025.73;;;29.88;12.77
70393;BME280;57812;59.294;18.084;2022-07-15T14:29:52;100020.07;;;30.11;12.51
70393;BME280;57812;59.294;18.084;2022-07-15T14:32:17;100025.46;;;30.46;12.58
70393;BME280;57812;59.294;18.084;2022-07-15T14:34:43;100033.55;;;30.01;12.58
70393;BME280;57812;59.294;18.084;2022-07-15T14:37:09;100042.85;;;29.88;12.75
70393;BME280;57812;59.294;18.084;2022-07-15T14:39:35;100035.65;;;29.72;12.70